createdAt,value
2018-05-17T00:00:21.739Z,5.70
2018-05-17T00:02:50.074Z,5.30
2018-05-17T00:05:20.595Z,4.70
2018-05-17T00:07:49.323Z,5.50
2018-05-17T00:10:17.619Z,6.13
2018-05-17T00:12:46.084Z,5.60
2018-05-17T00:15:14.412Z,5.90
2018-05-17T00:17:42.708Z,5.80
2018-05-17T00:20:12.581Z,5.40
2018-05-17T00:22:42.551Z,6.23
2018-05-17T00:25:11.668Z,4.43
2018-05-17T00:27:41.477Z,5.60
2018-05-17T00:30:10.570Z,6.10
2018-05-17T00:32:39.838Z,5.77
2018-05-17T00:35:08.730Z,4.90
2018-05-17T00:37:37.701Z,5.37
2018-05-17T00:40:06.075Z,5.17
2018-05-17T00:42:34.948Z,5.73
2018-05-17T00:45:03.257Z,6.00
2018-05-17T00:47:32.157Z,5.83
2018-05-17T00:50:01.294Z,4.63
2018-05-17T00:52:30.131Z,6.10
2018-05-17T00:54:58.502Z,4.60
2018-05-17T00:57:27.695Z,4.37
2018-05-17T00:59:55.997Z,6.40
2018-05-17T01:02:25.218Z,5.33
2018-05-17T01:04:54.274Z,6.17
2018-05-17T01:07:25.259Z,7.63
2018-05-17T01:09:54.956Z,6.57
2018-05-17T01:12:23.776Z,6.40
2018-05-17T01:14:52.701Z,6.20
2018-05-17T01:17:21.411Z,8.03
2018-05-17T01:19:49.753Z,8.07
2018-05-17T01:22:19.138Z,5.90
2018-05-17T01:24:48.315Z,7.00
2018-05-17T01:27:16.633Z,6.97
2018-05-17T01:29:45.405Z,7.47
2018-05-17T01:32:13.874Z,7.60
2018-05-17T01:34:42.937Z,6.13
2018-05-17T01:37:29.467Z,6.10
2018-05-17T01:39:59.553Z,7.80
2018-05-17T01:42:28.672Z,6.90
2018-05-17T01:44:57.846Z,6.40
2018-05-17T01:47:26.153Z,6.93
2018-05-17T01:49:54.475Z,8.30
2018-05-17T01:52:22.902Z,5.50
2018-05-17T01:54:51.197Z,7.87
2018-05-17T01:57:20.260Z,7.23
2018-05-17T01:59:48.913Z,6.90
2018-05-17T02:02:17.263Z,7.50
2018-05-17T02:04:46.445Z,10.00
2018-05-17T02:07:14.780Z,7.23
2018-05-17T02:09:43.950Z,7.17
2018-05-17T02:12:13.512Z,7.63
2018-05-17T02:14:41.812Z,7.37
2018-05-17T02:17:10.641Z,6.83
2018-05-17T02:19:39.437Z,7.27
2018-05-17T02:22:07.735Z,7.87
2018-05-17T02:24:36.939Z,9.07
2018-05-17T02:27:06.674Z,7.70
2018-05-17T02:29:35.420Z,6.47
2018-05-17T02:32:04.106Z,9.93
2018-05-17T02:34:32.397Z,7.07
2018-05-17T02:37:01.673Z,8.50
2018-05-17T02:39:30.022Z,7.90
2018-05-17T02:41:59.125Z,7.87
2018-05-17T02:44:28.369Z,7.47
2018-05-17T02:46:56.784Z,7.27
2018-05-17T02:49:26.047Z,8.53
2018-05-17T02:51:54.460Z,7.60
2018-05-17T02:54:22.898Z,7.70
2018-05-17T02:56:51.928Z,9.33
2018-05-17T02:59:20.254Z,7.00
2018-05-17T03:01:49.519Z,7.73
2018-05-17T03:04:17.839Z,7.53
2018-05-17T03:06:47.618Z,7.73
2018-05-17T03:09:15.941Z,7.40
2018-05-17T03:11:44.242Z,7.70
2018-05-17T03:14:13.052Z,8.27
2018-05-17T03:16:41.435Z,7.03
2018-05-17T03:19:10.735Z,7.37
2018-05-17T03:21:39.076Z,7.43
2018-05-17T03:24:07.902Z,8.77
2018-05-17T03:26:36.212Z,8.33
2018-05-17T03:29:07.479Z,10.40
2018-05-17T03:31:35.841Z,8.80
2018-05-17T03:34:05.114Z,8.10
2018-05-17T03:36:33.991Z,7.80
2018-05-17T03:39:02.324Z,7.43
2018-05-17T03:41:31.389Z,6.90
2018-05-17T03:44:01.255Z,8.13
2018-05-17T03:46:30.089Z,7.83
2018-05-17T03:48:59.937Z,7.53
2018-05-17T03:51:29.018Z,7.87
2018-05-17T03:53:58.054Z,5.97
2018-05-17T03:56:27.330Z,7.53
2018-05-17T03:58:57.129Z,7.97
2018-05-17T04:01:44.066Z,7.23
2018-05-17T04:04:30.845Z,8.80
2018-05-17T04:07:01.782Z,8.20
2018-05-17T04:09:30.142Z,8.17
2018-05-17T04:11:58.450Z,7.17
2018-05-17T04:14:26.939Z,7.27
2018-05-17T04:16:55.285Z,8.67
2018-05-17T04:19:26.417Z,7.63
2018-05-17T04:21:55.642Z,7.40
2018-05-17T04:24:25.494Z,8.30
2018-05-17T04:26:54.374Z,9.93
2018-05-17T04:29:24.581Z,6.73
2018-05-17T04:31:52.920Z,7.90
2018-05-17T04:34:21.780Z,8.83
2018-05-17T04:36:50.749Z,7.73
2018-05-17T04:39:19.772Z,7.80
2018-05-17T04:41:48.096Z,7.80
2018-05-17T04:44:16.387Z,8.20
2018-05-17T04:46:44.793Z,8.03
2018-05-17T04:49:14.055Z,7.53
2018-05-17T04:51:42.350Z,8.07
2018-05-17T04:54:12.022Z,7.63
2018-05-17T04:56:40.929Z,8.47
2018-05-17T04:59:09.220Z,7.90
2018-05-17T05:01:38.226Z,8.50
2018-05-17T05:04:07.342Z,7.83
2018-05-17T05:06:36.411Z,7.90
2018-05-17T05:09:06.000Z,8.33
2018-05-17T05:11:35.600Z,7.53
2018-05-17T05:14:03.914Z,7.40
2018-05-17T05:16:33.031Z,7.30
2018-05-17T05:19:02.143Z,7.47
2018-05-17T05:21:30.461Z,8.10
2018-05-17T05:23:58.880Z,9.13
2018-05-17T05:26:27.190Z,8.70
2018-05-17T05:28:55.493Z,8.57
2018-05-17T05:31:24.442Z,8.23
2018-05-17T05:33:53.513Z,8.60
2018-05-17T05:36:22.560Z,8.67
2018-05-17T05:38:50.855Z,9.47
2018-05-17T05:41:19.148Z,10.60
2018-05-17T05:43:48.662Z,12.40
2018-05-17T05:46:17.600Z,13.03
2018-05-17T05:48:46.730Z,11.83
2018-05-17T05:51:15.271Z,12.70
2018-05-17T05:53:44.268Z,12.57
2018-05-17T05:56:13.372Z,12.07
2018-05-17T05:58:42.539Z,10.83
2018-05-17T06:01:11.747Z,13.73
2018-05-17T06:03:40.885Z,13.23
2018-05-17T06:06:09.631Z,12.13
2018-05-17T06:08:37.959Z,9.67
2018-05-17T06:11:06.293Z,10.50
2018-05-17T06:13:36.009Z,9.17
2018-05-17T06:16:05.121Z,8.63
2018-05-17T06:18:35.277Z,8.27
2018-05-17T06:21:04.320Z,8.87
2018-05-17T06:23:33.905Z,9.83
2018-05-17T06:26:02.240Z,8.37
2018-05-17T06:28:32.775Z,7.87
2018-05-17T06:31:02.339Z,8.50
2018-05-17T06:33:31.078Z,8.13
2018-05-17T06:35:59.665Z,7.90
2018-05-17T06:38:28.077Z,8.63
2018-05-17T06:40:56.521Z,7.30
2018-05-17T06:43:25.800Z,7.50
2018-05-17T06:45:55.815Z,9.37
2018-05-17T06:48:24.864Z,7.80
2018-05-17T06:50:53.169Z,8.67
2018-05-17T06:53:21.881Z,6.80
2018-05-17T06:55:51.046Z,8.80
2018-05-17T06:58:19.346Z,8.60
2018-05-17T07:00:48.540Z,9.47
2018-05-17T07:03:18.475Z,7.97
2018-05-17T07:05:48.976Z,7.63
2018-05-17T07:08:18.352Z,8.27
2018-05-17T07:10:48.306Z,7.90
2018-05-17T07:13:17.406Z,7.97
2018-05-17T07:15:46.895Z,6.93
2018-05-17T07:18:15.447Z,6.33
2018-05-17T07:20:43.757Z,7.53
2018-05-17T07:23:12.045Z,7.87
2018-05-17T07:25:41.125Z,6.73
2018-05-17T07:28:09.510Z,6.07
2018-05-17T07:30:37.832Z,7.03
2018-05-17T07:33:06.222Z,7.90
2018-05-17T07:35:34.511Z,7.10
2018-05-17T07:38:03.226Z,9.00
2018-05-17T07:40:32.315Z,6.53
2018-05-17T07:43:01.233Z,7.97
2018-05-17T07:45:30.299Z,8.90
2018-05-17T07:48:00.010Z,10.73
2018-05-17T07:50:28.730Z,7.07
2018-05-17T07:52:57.817Z,8.33
2018-05-17T07:55:26.118Z,6.30
2018-05-17T07:57:55.675Z,8.40
2018-05-17T08:00:24.677Z,8.27
2018-05-17T08:02:52.986Z,7.50
2018-05-17T08:05:22.046Z,6.93
2018-05-17T08:07:51.028Z,7.10
2018-05-17T08:10:19.356Z,8.67
2018-05-17T08:12:49.196Z,7.40
2018-05-17T08:15:17.614Z,7.50
2018-05-17T08:17:47.683Z,7.90
2018-05-17T08:20:16.781Z,7.40
2018-05-17T08:22:47.236Z,8.23
2018-05-17T08:25:15.551Z,7.50
2018-05-17T08:27:44.034Z,9.80
2018-05-17T08:30:13.490Z,8.23
2018-05-17T08:32:42.105Z,7.70
2018-05-17T08:35:11.116Z,8.00
2018-05-17T08:37:40.938Z,7.27
2018-05-17T08:40:09.235Z,7.03
2018-05-17T08:42:38.570Z,7.10
2018-05-17T08:45:08.539Z,7.00
2018-05-17T08:47:37.190Z,7.23
2018-05-17T08:50:06.192Z,8.03
2018-05-17T08:52:34.538Z,7.10
2018-05-17T08:55:03.279Z,8.20
2018-05-17T08:57:33.729Z,6.03
2018-05-17T09:00:02.029Z,7.73
2018-05-17T09:02:32.486Z,7.23
2018-05-17T09:05:00.774Z,6.77
2018-05-17T09:07:29.095Z,7.43
2018-05-17T09:09:58.193Z,7.97
2018-05-17T09:12:27.295Z,8.10
2018-05-17T09:14:57.133Z,8.60
2018-05-17T09:17:26.274Z,8.83
2018-05-17T09:19:57.680Z,7.10
2018-05-17T09:22:27.942Z,8.60
2018-05-17T09:24:56.249Z,7.43
2018-05-17T09:27:25.435Z,9.10
2018-05-17T09:29:53.759Z,8.23
2018-05-17T09:32:22.057Z,8.70
2018-05-17T09:34:51.150Z,8.53
2018-05-17T09:37:19.574Z,8.70
2018-05-17T09:39:48.676Z,8.10
2018-05-17T09:42:17.025Z,7.77
2018-05-17T09:44:46.133Z,8.57
2018-05-17T09:47:14.707Z,7.90
2018-05-17T09:49:43.252Z,8.17
2018-05-17T09:52:12.898Z,6.70
2018-05-17T09:54:41.312Z,7.50
2018-05-17T09:57:11.699Z,6.93
2018-05-17T09:59:40.038Z,6.73
2018-05-17T10:02:09.422Z,7.80
2018-05-17T10:04:40.377Z,7.67
2018-05-17T10:07:10.277Z,8.33
2018-05-17T10:09:40.289Z,7.50
2018-05-17T10:12:09.298Z,7.00
2018-05-17T10:14:38.369Z,7.80
2018-05-17T10:17:07.819Z,6.33
2018-05-17T10:19:36.865Z,7.53
2018-05-17T10:22:05.304Z,8.23
2018-05-17T10:24:34.039Z,7.80
2018-05-17T10:27:02.369Z,7.00
2018-05-17T10:29:30.739Z,7.70
2018-05-17T10:31:59.988Z,6.30
2018-05-17T10:34:29.146Z,6.17
2018-05-17T10:36:57.467Z,6.73
2018-05-17T10:39:27.501Z,8.00
2018-05-17T10:41:56.689Z,7.17
2018-05-17T10:44:26.434Z,7.13
2018-05-17T10:46:55.368Z,5.87
2018-05-17T10:49:24.235Z,7.33
2018-05-17T10:51:52.869Z,8.17
2018-05-17T10:54:21.304Z,7.57
2018-05-17T10:56:50.142Z,7.83
2018-05-17T10:59:18.532Z,7.17
2018-05-17T11:01:47.752Z,8.03
2018-05-17T11:04:16.952Z,6.50
2018-05-17T11:06:46.114Z,6.97
2018-05-17T11:09:14.466Z,7.20
2018-05-17T11:11:42.764Z,6.70
2018-05-17T11:14:11.092Z,7.47
2018-05-17T11:16:40.681Z,7.27
2018-05-17T11:19:09.040Z,6.33
2018-05-17T11:21:37.451Z,7.53
2018-05-17T11:24:06.590Z,6.70
2018-05-17T11:26:35.794Z,7.70
2018-05-17T11:29:04.675Z,8.37
2018-05-17T11:31:33.143Z,7.80
2018-05-17T11:34:03.020Z,8.87
2018-05-17T11:36:31.416Z,8.60
2018-05-17T11:38:59.712Z,8.27
2018-05-17T11:41:28.802Z,8.07
2018-05-17T11:43:59.649Z,8.53
2018-05-17T11:49:26.034Z,7.80
2018-05-17T11:51:54.846Z,8.10
2018-05-17T11:54:25.317Z,8.43
2018-05-17T11:56:55.280Z,8.07
2018-05-17T11:59:23.769Z,10.00
2018-05-17T12:01:52.230Z,8.23
2018-05-17T12:04:20.763Z,8.00
2018-05-17T12:06:49.381Z,7.67
2018-05-17T12:15:12.758Z,9.40
2018-05-17T12:17:41.147Z,8.83
2018-05-17T12:20:10.230Z,9.23
2018-05-17T12:22:41.651Z,10.10
2018-05-17T12:25:10.810Z,7.53
2018-05-17T12:27:39.694Z,8.50
2018-05-17T12:30:09.281Z,9.50
2018-05-17T12:32:38.658Z,9.53
2018-05-17T12:35:07.791Z,8.80
2018-05-17T12:37:37.568Z,9.63
2018-05-17T12:40:06.296Z,8.90
2018-05-17T12:42:36.681Z,8.60
2018-05-17T12:45:05.140Z,8.50
2018-05-17T12:47:33.522Z,8.63
2018-05-17T12:50:02.030Z,11.23
2018-05-17T12:52:30.381Z,9.47
2018-05-17T12:54:58.681Z,8.50
2018-05-17T12:57:27.270Z,10.17
2018-05-17T12:59:57.121Z,8.30
2018-05-17T13:02:25.471Z,10.30
2018-05-17T13:04:54.330Z,10.23
2018-05-17T13:07:23.442Z,9.67
2018-05-17T13:09:52.777Z,10.00
2018-05-17T13:12:22.086Z,10.50
2018-05-17T13:14:51.175Z,9.70
2018-05-17T13:17:19.539Z,10.50
2018-05-17T13:19:49.365Z,11.13
2018-05-17T13:22:18.434Z,11.83
2018-05-17T13:24:46.805Z,10.13
2018-05-17T13:27:17.405Z,11.20
2018-05-17T13:29:46.536Z,11.57
2018-05-17T13:32:14.838Z,11.23
2018-05-17T13:34:43.126Z,10.80
2018-05-17T13:37:12.303Z,8.97
2018-05-17T13:39:41.450Z,10.57
2018-05-17T13:42:11.767Z,9.40
2018-05-17T13:44:41.864Z,12.70
2018-05-17T13:47:10.726Z,10.40
2018-05-17T13:49:40.411Z,11.37
2018-05-17T13:52:09.029Z,10.70
2018-05-17T13:54:38.228Z,9.13
2018-05-17T13:57:06.869Z,10.07
2018-05-17T13:59:35.952Z,9.27
2018-05-17T14:02:04.249Z,7.73
2018-05-17T14:04:34.161Z,9.30
2018-05-17T14:07:03.304Z,9.27
2018-05-17T14:09:31.625Z,8.13
2018-05-17T14:12:01.432Z,8.63
2018-05-17T14:14:30.818Z,9.70
2018-05-17T14:16:59.186Z,9.03
2018-05-17T14:19:28.832Z,9.70
2018-05-17T14:21:58.412Z,7.90
2018-05-17T14:24:28.214Z,10.10
2018-05-17T14:26:57.451Z,9.60
2018-05-17T14:29:25.810Z,9.77
2018-05-17T14:31:54.942Z,11.80
2018-05-17T14:34:24.307Z,9.77
2018-05-17T14:36:53.522Z,10.27
2018-05-17T14:39:22.626Z,9.50
2018-05-17T14:41:53.095Z,10.23
2018-05-17T14:44:21.885Z,9.60
2018-05-17T14:46:51.039Z,10.10
2018-05-17T14:49:21.809Z,9.27
2018-05-17T14:51:50.639Z,10.97
2018-05-17T14:54:20.018Z,8.77
2018-05-17T14:56:49.763Z,10.00
2018-05-17T14:59:19.488Z,8.70
2018-05-17T15:01:47.793Z,8.87
2018-05-17T15:04:17.435Z,9.13
2018-05-17T15:06:45.840Z,9.67
2018-05-17T15:09:14.778Z,8.80
2018-05-17T15:11:45.138Z,9.30
2018-05-17T15:14:14.723Z,8.60
2018-05-17T15:16:43.065Z,8.90
2018-05-17T15:19:11.479Z,9.23
2018-05-17T15:21:40.609Z,10.00
2018-05-17T15:24:10.277Z,10.07
2018-05-17T15:26:39.394Z,8.23
2018-05-17T15:29:07.903Z,10.93
2018-05-17T15:31:36.632Z,11.87
2018-05-17T15:34:06.352Z,9.90
2018-05-17T15:36:36.301Z,8.33
2018-05-17T15:39:04.623Z,9.17
2018-05-17T15:41:33.006Z,8.33
2018-05-17T15:44:02.962Z,9.03
2018-05-17T15:46:31.404Z,8.77
2018-05-17T15:49:00.759Z,9.10
2018-05-17T15:51:29.445Z,8.67
2018-05-17T15:53:57.791Z,8.17
2018-05-17T15:56:27.346Z,9.80
2018-05-17T15:58:56.493Z,9.33
2018-05-17T16:01:26.411Z,9.63
2018-05-17T16:03:57.317Z,9.73
2018-05-17T16:06:25.790Z,12.07
2018-05-17T16:08:54.968Z,9.27
2018-05-17T16:11:23.403Z,10.00
2018-05-17T16:13:52.719Z,10.00
2018-05-17T16:16:23.098Z,9.83
2018-05-17T16:18:52.241Z,10.57
2018-05-17T16:21:21.302Z,9.27
2018-05-17T16:23:50.236Z,9.60
2018-05-17T16:26:19.088Z,8.93
2018-05-17T16:28:48.889Z,8.70
2018-05-17T16:31:17.366Z,9.60
2018-05-17T16:33:49.076Z,10.50
2018-05-17T16:36:18.998Z,10.00
2018-05-17T16:38:48.598Z,10.60
2018-05-17T16:41:18.024Z,9.27
2018-05-17T16:43:46.576Z,9.37
2018-05-17T16:46:15.710Z,10.17
2018-05-17T16:48:44.990Z,10.30
2018-05-17T16:51:13.890Z,10.93
2018-05-17T16:53:43.126Z,8.90
2018-05-17T16:56:11.852Z,10.60
2018-05-17T16:58:40.283Z,9.70
2018-05-17T17:01:09.510Z,9.90
2018-05-17T17:03:38.102Z,9.50
2018-05-17T17:06:08.810Z,11.47
2018-05-17T17:08:37.118Z,9.43
2018-05-17T17:11:06.277Z,9.13
2018-05-17T17:13:35.153Z,9.10
2018-05-17T17:16:03.459Z,9.90
2018-05-17T17:18:32.497Z,9.13
2018-05-17T17:21:01.182Z,9.93
2018-05-17T17:23:30.311Z,9.10
2018-05-17T17:25:58.625Z,9.00
2018-05-17T17:28:27.017Z,9.43
2018-05-17T17:30:55.436Z,9.70
2018-05-17T17:33:23.869Z,10.63
2018-05-17T17:35:53.265Z,10.50
2018-05-17T17:38:22.445Z,10.77
2018-05-17T17:40:51.139Z,10.20
2018-05-17T17:43:19.662Z,11.90
2018-05-17T17:45:48.813Z,11.13
2018-05-17T17:48:18.330Z,10.20
2018-05-17T17:50:48.274Z,10.87
2018-05-17T17:53:17.276Z,12.27
2018-05-17T17:55:45.887Z,14.00
2018-05-17T17:58:15.606Z,13.57
2018-05-17T18:00:45.456Z,13.80
2018-05-17T18:03:14.134Z,14.57
2018-05-17T18:05:42.549Z,14.40
2018-05-17T18:08:11.236Z,13.57
2018-05-17T18:10:40.037Z,13.20
2018-05-17T18:13:08.402Z,13.30
2018-05-17T18:15:37.496Z,12.70
2018-05-17T18:18:06.179Z,14.80
2018-05-17T18:20:35.547Z,14.37
2018-05-17T18:23:04.586Z,13.53
2018-05-17T18:30:18.351Z,16.10
2018-05-17T18:32:46.719Z,15.53
2018-05-17T18:35:15.368Z,14.50
2018-05-17T18:37:45.214Z,15.33
2018-05-17T18:40:13.791Z,16.30
2018-05-17T18:42:42.152Z,14.43
2018-05-17T18:45:11.508Z,14.80
2018-05-17T18:47:41.790Z,15.53
2018-05-17T18:50:10.631Z,15.43
2018-05-17T18:52:39.480Z,12.47
2018-05-17T18:55:07.927Z,17.20
2018-05-17T18:57:38.252Z,13.93
2018-05-17T19:00:08.919Z,14.20
2018-05-17T19:02:38.433Z,12.93
2018-05-17T19:05:07.547Z,14.07
2018-05-17T19:07:35.847Z,14.50
2018-05-17T19:10:05.099Z,13.43
2018-05-17T19:12:33.422Z,12.27
2018-05-17T19:15:01.753Z,12.40
2018-05-17T19:17:30.999Z,12.67
2018-05-17T19:19:59.573Z,16.53
2018-05-17T19:22:28.583Z,13.40
2018-05-17T19:24:57.241Z,12.70
2018-05-17T19:27:26.738Z,14.67
2018-05-17T19:29:55.739Z,15.07
2018-05-17T19:32:24.402Z,12.33
2018-05-17T19:34:52.753Z,14.47
2018-05-17T19:37:21.737Z,12.57
2018-05-17T19:39:50.446Z,12.93
2018-05-17T19:42:21.206Z,12.13
2018-05-17T19:44:50.344Z,12.93
2018-05-17T19:47:19.294Z,12.83
2018-05-17T19:49:52.170Z,12.73
2018-05-17T19:52:23.444Z,11.80
2018-05-17T19:54:52.894Z,12.07
2018-05-17T19:57:22.154Z,14.37
2018-05-17T19:59:51.539Z,11.97
2018-05-17T20:02:20.535Z,12.67
2018-05-17T20:04:48.878Z,11.70
2018-05-17T20:07:17.972Z,12.50
2018-05-17T20:09:46.526Z,11.07
2018-05-17T20:12:14.887Z,10.47
2018-05-17T20:14:43.676Z,10.93
2018-05-17T20:17:13.035Z,9.40
2018-05-17T20:19:44.264Z,12.00
2018-05-17T20:22:13.309Z,11.10
2018-05-17T20:24:41.627Z,12.87
2018-05-17T20:27:10.418Z,13.07
2018-05-17T20:29:38.919Z,11.77
2018-05-17T20:32:07.297Z,11.37
2018-05-17T20:34:36.698Z,12.67
2018-05-17T20:37:05.040Z,11.03
2018-05-17T20:39:33.892Z,10.70
2018-05-17T20:42:03.840Z,10.60
2018-05-17T20:44:33.355Z,9.77
2018-05-17T20:47:02.133Z,9.83
2018-05-17T20:49:30.639Z,11.33
2018-05-17T20:51:59.947Z,10.50
2018-05-17T20:54:28.611Z,11.23
2018-05-17T20:56:57.033Z,10.40
2018-05-17T20:59:27.074Z,8.90
2018-05-17T21:01:57.260Z,8.90
2018-05-17T21:04:25.892Z,14.00
2018-05-17T21:06:55.130Z,10.83
2018-05-17T21:09:23.542Z,10.57
2018-05-17T21:11:51.863Z,10.50
2018-05-17T21:14:21.413Z,10.10
2018-05-17T21:16:49.809Z,9.73
2018-05-17T21:19:18.148Z,12.20
2018-05-17T21:21:46.521Z,9.50
2018-05-17T21:24:15.258Z,9.40
2018-05-17T21:26:43.576Z,10.47
2018-05-17T21:29:11.951Z,9.10
2018-05-17T21:31:41.099Z,10.03
2018-05-17T21:34:09.586Z,10.87
2018-05-17T21:36:38.258Z,9.77
2018-05-17T21:39:06.594Z,10.60
2018-05-17T21:41:35.877Z,10.70
2018-05-17T21:44:06.029Z,10.13
2018-05-17T21:46:35.845Z,9.20
2018-05-17T21:49:04.327Z,11.57
2018-05-17T21:51:32.857Z,10.70
2018-05-17T21:54:01.234Z,11.03
2018-05-17T21:56:29.894Z,9.77
2018-05-17T21:58:58.274Z,10.40
2018-05-17T22:01:30.660Z,12.43
2018-05-17T22:03:59.355Z,10.20
2018-05-17T22:06:28.575Z,10.97
2018-05-17T22:08:56.965Z,11.03
2018-05-17T22:11:26.956Z,12.30
2018-05-17T22:13:56.072Z,11.47
2018-05-17T22:16:25.852Z,10.60
2018-05-17T22:18:54.790Z,12.40
2018-05-17T22:21:23.934Z,11.93
2018-05-17T22:23:52.248Z,11.40
2018-05-17T22:26:21.131Z,13.30
2018-05-17T22:28:49.501Z,13.00
2018-05-17T22:31:17.865Z,11.90
2018-05-17T22:33:46.505Z,13.67
2018-05-17T22:36:15.569Z,12.80
2018-05-17T22:38:44.829Z,13.13
2018-05-17T22:41:13.746Z,13.03
2018-05-17T22:43:42.670Z,13.00
2018-05-17T22:46:12.801Z,13.30
2018-05-17T22:48:41.875Z,12.33
2018-05-17T22:51:10.900Z,12.57
2018-05-17T22:53:40.112Z,11.00
2018-05-17T22:56:11.575Z,10.90
2018-05-17T22:58:39.904Z,11.37
2018-05-17T23:01:08.235Z,11.30
2018-05-17T23:03:37.471Z,10.60
2018-05-17T23:06:06.702Z,11.57
2018-05-17T23:08:36.970Z,9.93
2018-05-17T23:11:06.160Z,11.67
2018-05-17T23:13:35.159Z,10.70
2018-05-17T23:16:03.992Z,10.93
2018-05-17T23:18:35.623Z,10.97
2018-05-17T23:21:04.566Z,10.30
2018-05-17T23:23:35.240Z,11.33
2018-05-17T23:26:05.247Z,11.43
2018-05-17T23:28:33.548Z,10.77
2018-05-17T23:31:02.483Z,11.83
2018-05-17T23:33:31.712Z,11.43
2018-05-17T23:36:00.548Z,10.77
2018-05-17T23:38:29.562Z,11.67
2018-05-17T23:41:18.192Z,12.10
2018-05-17T23:43:47.281Z,10.63
2018-05-17T23:46:17.394Z,11.70
2018-05-17T23:48:45.741Z,12.00
2018-05-17T23:51:14.783Z,11.00
2018-05-17T23:53:44.052Z,11.60
2018-05-17T23:56:13.253Z,12.00
2018-05-17T23:58:42.066Z,11.90
